createdAt,value
2023-04-08T00:02:10.973Z,10.85
2023-04-08T00:04:40.856Z,10.84
2023-04-08T00:07:10.688Z,10.84
2023-04-08T00:09:40.724Z,10.85
2023-04-08T00:12:11.137Z,10.85
2023-04-08T00:14:44.043Z,10.83
2023-04-08T00:17:13.942Z,10.82
2023-04-08T00:19:43.835Z,10.82
2023-04-08T00:22:13.878Z,10.78
2023-04-08T00:24:43.796Z,10.78
2023-04-08T00:27:13.583Z,10.77
2023-04-08T00:29:46.763Z,10.75
2023-04-08T00:32:16.911Z,10.74
2023-04-08T00:34:46.698Z,10.73
2023-04-08T00:37:16.552Z,10.75
2023-04-08T00:39:46.830Z,10.79
2023-04-08T00:42:17.239Z,10.79
2023-04-08T00:44:49.751Z,10.81
2023-04-08T00:47:19.656Z,10.83
2023-04-08T00:49:49.488Z,10.84
2023-04-08T00:52:19.378Z,10.85
2023-04-08T00:54:49.295Z,10.85
2023-04-08T00:57:19.271Z,10.87
2023-04-08T00:59:51.783Z,10.87
2023-04-08T01:02:30.154Z,10.88
2023-04-08T01:05:06.374Z,10.89
2023-04-08T01:07:39.743Z,10.89
2023-04-08T01:10:16.348Z,10.88
2023-04-08T01:12:51.662Z,10.89
2023-04-08T01:15:25.118Z,10.89
2023-04-08T01:17:56.884Z,10.90
2023-04-08T01:20:28.565Z,10.88
2023-04-08T01:23:12.778Z,10.87
2023-04-08T01:25:43.067Z,10.84
2023-04-08T01:28:19.388Z,10.81
2023-04-08T01:30:50.936Z,10.78
2023-04-08T01:33:22.455Z,10.75
2023-04-08T01:35:52.570Z,10.71
2023-04-08T01:38:24.574Z,10.69
2023-04-08T01:40:55.319Z,10.67
2023-04-08T01:43:29.252Z,10.64
2023-04-08T01:46:01.023Z,10.60
2023-04-08T01:48:32.620Z,10.58
2023-04-08T01:51:03.787Z,10.57
2023-04-08T01:53:33.806Z,10.56
2023-04-08T01:56:09.019Z,10.54
2023-04-08T01:58:45.906Z,10.52
2023-04-08T02:01:20.211Z,10.52
2023-04-08T02:03:52.360Z,10.50
2023-04-08T02:06:22.651Z,10.49
2023-04-08T02:08:52.922Z,10.46
2023-04-08T02:11:26.065Z,10.40
2023-04-08T02:13:59.215Z,10.33
2023-04-08T02:16:35.733Z,10.30
2023-04-08T02:19:11.218Z,10.28
2023-04-08T02:21:50.419Z,10.24
2023-04-08T02:24:21.564Z,10.23
2023-04-08T02:26:54.400Z,10.18
2023-04-08T02:29:28.173Z,10.16
2023-04-08T02:31:59.102Z,10.13
2023-04-08T02:34:29.948Z,10.07
2023-04-08T02:36:59.733Z,10.02
2023-04-08T02:39:34.311Z,9.99
2023-04-08T02:42:04.203Z,9.96
2023-04-08T02:44:37.011Z,9.93
2023-04-08T02:47:06.831Z,9.89
2023-04-08T02:49:36.639Z,9.86
2023-04-08T02:52:06.628Z,9.83
2023-04-08T02:54:36.549Z,9.77
2023-04-08T02:57:06.413Z,9.75
2023-04-08T02:59:41.158Z,9.70
2023-04-08T03:02:11.042Z,9.67
2023-04-08T03:04:40.963Z,9.62
2023-04-08T03:07:11.122Z,9.58
2023-04-08T03:09:41.544Z,9.54
2023-04-08T03:12:11.469Z,9.49
2023-04-08T03:14:43.945Z,9.45
2023-04-08T03:17:13.917Z,9.41
2023-04-08T03:19:43.825Z,9.36
2023-04-08T03:22:13.706Z,9.33
2023-04-08T03:24:43.626Z,9.24
2023-04-08T03:27:14.378Z,9.21
2023-04-08T03:29:47.003Z,9.18
2023-04-08T03:32:17.132Z,9.15
2023-04-08T03:34:46.987Z,9.10
2023-04-08T03:37:16.772Z,9.06
2023-04-08T03:39:46.669Z,9.02
2023-04-08T03:42:16.488Z,9.00
2023-04-08T03:44:48.931Z,8.95
2023-04-08T03:47:18.812Z,8.91
2023-04-08T03:49:48.608Z,8.87
2023-04-08T03:52:18.503Z,8.83
2023-04-08T03:54:48.330Z,8.79
2023-04-08T03:57:18.550Z,8.76
2023-04-08T03:59:50.905Z,8.72
2023-04-08T04:02:20.951Z,8.68
2023-04-08T04:04:50.889Z,8.65
2023-04-08T04:07:20.807Z,8.61
2023-04-08T04:09:54.349Z,8.59
2023-04-08T04:12:24.152Z,8.55
2023-04-08T04:14:56.721Z,8.54
2023-04-08T04:17:26.566Z,8.55
2023-04-08T04:19:56.526Z,8.57
2023-04-08T04:22:26.407Z,8.54
2023-04-08T04:24:56.154Z,8.55
2023-04-08T04:27:26.073Z,8.55
2023-04-08T04:29:58.525Z,8.55
2023-04-08T04:32:28.442Z,8.54
2023-04-08T04:34:58.304Z,8.54
2023-04-08T04:37:28.506Z,8.52
2023-04-08T04:39:58.359Z,8.50
2023-04-08T04:42:28.169Z,8.50
2023-04-08T04:45:03.149Z,8.49
2023-04-08T04:47:33.041Z,8.47
2023-04-08T04:50:02.876Z,8.50
2023-04-08T04:52:32.752Z,8.49
2023-04-08T04:55:02.622Z,8.50
2023-04-08T04:57:32.481Z,8.47
2023-04-08T05:00:05.765Z,8.45
2023-04-08T05:02:35.805Z,8.42
2023-04-08T05:05:06.163Z,8.43
2023-04-08T05:07:38.849Z,8.39
2023-04-08T05:10:09.730Z,8.27
2023-04-08T05:12:39.487Z,8.18
2023-04-08T05:15:12.781Z,8.15
2023-04-08T05:17:42.619Z,8.17
2023-04-08T05:20:12.940Z,8.20
2023-04-08T05:22:44.793Z,8.23
2023-04-08T05:25:14.913Z,8.27
2023-04-08T05:27:44.834Z,8.31
2023-04-08T05:30:17.502Z,8.34
2023-04-08T05:32:47.643Z,8.37
2023-04-08T05:35:17.485Z,8.39
2023-04-08T05:37:47.351Z,8.41
2023-04-08T05:40:17.354Z,8.40
2023-04-08T05:42:47.195Z,8.39
2023-04-08T05:45:19.662Z,8.39
2023-04-08T05:47:49.517Z,8.40
2023-04-08T05:50:19.411Z,8.41
2023-04-08T05:52:49.764Z,8.41
2023-04-08T05:55:19.558Z,8.42
2023-04-08T05:57:49.337Z,8.43
2023-04-08T06:00:22.726Z,8.45
2023-04-08T06:02:52.798Z,8.49
2023-04-08T06:05:22.934Z,8.48
2023-04-08T06:07:52.799Z,8.49
2023-04-08T06:10:22.717Z,8.54
2023-04-08T06:12:52.547Z,8.57
2023-04-08T06:15:25.279Z,8.55
2023-04-08T06:17:55.143Z,8.54
2023-04-08T06:20:25.218Z,8.52
2023-04-08T06:22:55.050Z,8.49
2023-04-08T06:25:24.983Z,8.50
2023-04-08T06:27:54.821Z,8.53
2023-04-08T06:30:27.415Z,8.52
2023-04-08T06:32:57.330Z,8.51
2023-04-08T06:35:28.409Z,8.41
2023-04-08T06:37:58.359Z,8.43
2023-04-08T06:40:28.275Z,8.46
2023-04-08T06:42:58.594Z,8.45
2023-04-08T06:45:31.101Z,8.49
2023-04-08T06:48:01.079Z,8.52
2023-04-08T06:50:30.983Z,8.51
2023-04-08T06:53:01.012Z,8.47
2023-04-08T06:55:30.858Z,8.45
2023-04-08T06:58:02.255Z,8.42
2023-04-08T07:00:46.850Z,8.34
2023-04-08T07:03:16.875Z,8.28
2023-04-08T07:05:46.946Z,8.27
2023-04-08T07:08:17.044Z,8.27
2023-04-08T07:10:46.900Z,8.31
2023-04-08T07:13:17.700Z,8.35
2023-04-08T07:15:50.154Z,8.42
2023-04-08T07:18:21.610Z,8.44
2023-04-08T07:20:54.556Z,8.47
2023-04-08T07:23:24.861Z,8.46
2023-04-08T07:25:54.700Z,8.45
2023-04-08T07:28:24.522Z,8.43
2023-04-08T07:30:57.459Z,8.42
2023-04-08T07:33:27.464Z,8.38
2023-04-08T07:35:57.324Z,8.37
2023-04-08T07:38:28.041Z,8.39
2023-04-08T07:40:57.944Z,8.36
2023-04-08T07:43:27.728Z,8.35
2023-04-08T07:46:03.641Z,8.40
2023-04-08T07:48:34.045Z,8.41
2023-04-08T07:51:08.177Z,8.45
2023-04-08T07:53:40.715Z,8.50
2023-04-08T07:56:15.397Z,8.60
2023-04-08T07:58:45.696Z,8.59
2023-04-08T08:01:22.525Z,8.55
2023-04-08T08:03:53.887Z,8.59
2023-04-08T08:06:24.159Z,8.57
2023-04-08T08:08:53.936Z,8.49
2023-04-08T08:11:23.857Z,8.53
2023-04-08T08:13:53.727Z,8.62
2023-04-08T08:16:27.582Z,8.69
2023-04-08T08:18:57.437Z,8.76
2023-04-08T08:21:27.443Z,8.89
2023-04-08T08:23:58.150Z,9.05
2023-04-08T08:26:28.909Z,9.16
2023-04-08T08:28:58.754Z,9.19
2023-04-08T08:31:31.207Z,9.26
2023-04-08T08:34:01.118Z,9.36
2023-04-08T08:36:32.749Z,9.43
2023-04-08T08:39:04.593Z,9.45
2023-04-08T08:41:37.990Z,9.49
2023-04-08T08:44:09.659Z,9.52
2023-04-08T08:46:46.921Z,9.52
2023-04-08T08:49:17.140Z,9.57
2023-04-08T08:51:49.312Z,9.69
2023-04-08T08:54:19.202Z,9.73
2023-04-08T08:56:49.286Z,9.79
2023-04-08T08:59:19.377Z,9.90
2023-04-08T09:01:51.965Z,9.96
2023-04-08T09:04:23.498Z,9.98
2023-04-08T09:07:11.402Z,10.04
2023-04-08T09:09:52.072Z,10.01
2023-04-08T09:12:22.490Z,10.09
2023-04-08T09:14:52.722Z,10.26
2023-04-08T09:17:38.196Z,10.38
2023-04-08T09:20:12.063Z,10.48
2023-04-08T09:23:00.152Z,10.50
2023-04-08T09:25:32.343Z,10.64
2023-04-08T09:28:03.225Z,10.75
2023-04-08T09:30:39.010Z,10.83
2023-04-08T09:33:11.962Z,10.85
2023-04-08T09:35:41.934Z,10.89
2023-04-08T09:38:11.754Z,10.95
2023-04-08T09:40:45.598Z,11.18
2023-04-08T09:43:18.811Z,11.51
2023-04-08T09:45:52.627Z,11.58
2023-04-08T09:48:30.837Z,11.73
2023-04-08T09:51:02.502Z,11.89
2023-04-08T09:53:37.074Z,11.93
2023-04-08T09:56:11.438Z,12.18
2023-04-08T09:58:46.487Z,12.35
2023-04-08T10:01:19.948Z,12.51
2023-04-08T10:03:57.578Z,12.66
2023-04-08T10:06:32.479Z,12.62
2023-04-08T10:09:04.566Z,12.60
2023-04-08T10:11:34.480Z,12.54
2023-04-08T10:14:05.570Z,12.59
2023-04-08T10:16:36.149Z,12.71
2023-04-08T10:19:42.370Z,12.68
2023-04-08T10:22:59.711Z,12.79
2023-04-08T10:25:34.447Z,12.90
2023-04-08T10:28:06.262Z,12.97
2023-04-08T10:30:45.864Z,12.99
2023-04-08T10:33:18.719Z,13.10
2023-04-08T10:35:57.558Z,13.02
2023-04-08T10:38:27.814Z,13.07
2023-04-08T10:40:58.644Z,13.02
2023-04-08T10:43:28.776Z,13.10
2023-04-08T10:45:58.758Z,13.23
2023-04-08T10:48:29.438Z,13.30
2023-04-08T10:51:02.988Z,13.24
2023-04-08T10:53:37.858Z,13.26
2023-04-08T10:56:09.288Z,13.25
2023-04-08T10:58:39.429Z,13.25
2023-04-08T11:01:10.514Z,13.20
2023-04-08T11:03:40.612Z,13.22
2023-04-08T11:06:13.212Z,13.21
2023-04-08T11:08:44.919Z,13.23
2023-04-08T11:11:15.043Z,13.25
2023-04-08T11:13:53.266Z,13.25
2023-04-08T11:16:24.671Z,13.20
2023-04-08T11:18:55.790Z,13.27
2023-04-08T11:21:30.657Z,13.36
2023-04-08T11:24:00.703Z,13.46
2023-04-08T11:26:30.673Z,13.45
2023-04-08T11:29:01.321Z,13.40
2023-04-08T11:31:32.212Z,13.41
2023-04-08T11:34:02.013Z,13.36
2023-04-08T11:36:36.922Z,13.42
2023-04-08T11:39:12.429Z,13.45
2023-04-08T11:41:43.284Z,13.49
2023-04-08T11:44:13.343Z,13.53
2023-04-08T11:46:46.038Z,13.58
2023-04-08T11:49:16.132Z,13.59
2023-04-08T11:52:01.006Z,13.47
2023-04-08T11:54:32.357Z,13.62
2023-04-08T11:57:03.311Z,13.54
2023-04-08T11:59:33.416Z,13.48
2023-04-08T12:02:03.488Z,13.47
2023-04-08T12:04:34.408Z,13.52
2023-04-08T12:07:07.535Z,13.62
2023-04-08T12:09:37.712Z,13.64
2023-04-08T12:12:07.628Z,13.62
2023-04-08T12:14:37.425Z,13.69
2023-04-08T12:17:07.425Z,13.68
2023-04-08T12:19:38.551Z,13.80
2023-04-08T12:22:11.223Z,13.87
2023-04-08T12:24:41.166Z,14.00
2023-04-08T12:27:13.838Z,13.98
2023-04-08T12:29:43.766Z,13.98
2023-04-08T12:32:13.783Z,14.04
2023-04-08T12:34:43.740Z,14.09
2023-04-08T12:37:16.610Z,14.16
2023-04-08T12:39:46.617Z,14.18
2023-04-08T12:42:16.688Z,14.05
2023-04-08T12:44:46.598Z,13.95
2023-04-08T12:47:16.640Z,14.02
2023-04-08T12:49:49.772Z,14.09
2023-04-08T12:52:24.437Z,14.01
2023-04-08T12:54:54.196Z,14.07
2023-04-08T12:57:24.293Z,14.04
2023-04-08T12:59:54.435Z,14.00
2023-04-08T13:02:25.824Z,14.07
2023-04-08T13:04:55.894Z,14.09
2023-04-08T13:07:28.322Z,13.95
2023-04-08T13:09:58.280Z,13.96
2023-04-08T13:12:28.138Z,14.03
2023-04-08T13:14:58.646Z,14.08
2023-04-08T13:17:28.729Z,14.12
2023-04-08T13:19:58.616Z,14.11
2023-04-08T13:22:32.402Z,14.20
2023-04-08T13:25:02.932Z,14.23
2023-04-08T13:27:32.802Z,14.19
2023-04-08T13:30:02.674Z,14.06
2023-04-08T13:32:32.798Z,14.01
2023-04-08T13:35:02.697Z,13.93
2023-04-08T13:37:35.236Z,13.89
2023-04-08T13:40:05.439Z,13.93
2023-04-08T13:42:35.619Z,13.97
2023-04-08T13:45:05.591Z,14.07
2023-04-08T13:47:37.900Z,14.11
2023-04-08T13:50:09.273Z,14.12
2023-04-08T13:52:42.249Z,14.10
2023-04-08T13:55:12.462Z,14.18
2023-04-08T13:57:42.369Z,14.23
2023-04-08T14:00:13.556Z,14.30
2023-04-08T14:02:43.947Z,14.24
2023-04-08T14:05:18.509Z,14.19
2023-04-08T14:07:51.355Z,14.15
2023-04-08T14:10:21.296Z,14.13
2023-04-08T14:12:51.221Z,14.16
2023-04-08T14:15:21.240Z,14.17
2023-04-08T14:17:51.224Z,14.17
2023-04-08T14:20:21.200Z,14.18
2023-04-08T14:22:53.947Z,14.20
2023-04-08T14:25:23.904Z,14.23
2023-04-08T14:27:58.069Z,14.19
2023-04-08T14:30:29.035Z,14.25
2023-04-08T14:32:59.493Z,14.24
2023-04-08T14:35:29.788Z,14.27
2023-04-08T14:38:02.578Z,14.28
2023-04-08T14:40:32.796Z,14.27
2023-04-08T14:43:02.799Z,14.28
2023-04-08T14:45:33.321Z,14.25
2023-04-08T14:48:03.670Z,14.19
2023-04-08T14:50:33.990Z,14.14
2023-04-08T14:53:07.093Z,14.05
2023-04-08T14:55:37.190Z,14.04
2023-04-08T14:58:09.958Z,13.99
2023-04-08T15:00:44.455Z,13.96
2023-04-08T15:03:14.514Z,13.99
2023-04-08T15:05:46.014Z,14.04
2023-04-08T15:08:18.535Z,14.09
2023-04-08T15:10:48.744Z,14.13
2023-04-08T15:13:18.723Z,14.14
2023-04-08T15:15:51.508Z,14.20
2023-04-08T15:18:21.534Z,14.18
2023-04-08T15:20:51.798Z,14.17
2023-04-08T15:23:25.075Z,14.18
2023-04-08T15:25:55.015Z,14.23
2023-04-08T15:28:24.854Z,14.28
2023-04-08T15:30:54.714Z,14.35
2023-04-08T15:33:27.508Z,14.34
2023-04-08T15:36:00.070Z,14.33
2023-04-08T15:38:33.823Z,14.31
2023-04-08T15:41:03.975Z,14.25
2023-04-08T15:43:33.953Z,14.16
2023-04-08T15:46:03.845Z,14.12
2023-04-08T15:48:35.660Z,14.12
2023-04-08T15:51:12.948Z,14.08
2023-04-08T15:53:46.104Z,14.10
2023-04-08T15:56:16.793Z,14.11
2023-04-08T15:58:47.246Z,14.08
2023-04-08T16:01:18.925Z,14.09
2023-04-08T16:03:48.979Z,14.10
2023-04-08T16:06:19.083Z,14.09
2023-04-08T16:08:51.767Z,14.05
2023-04-08T16:11:22.742Z,14.09
2023-04-08T16:13:55.256Z,14.09
2023-04-08T16:16:25.463Z,14.13
2023-04-08T16:18:56.759Z,14.15
2023-04-08T16:21:26.810Z,14.15
2023-04-08T16:24:01.102Z,14.07
2023-04-08T16:26:31.481Z,14.08
2023-04-08T16:29:02.153Z,14.14
2023-04-08T16:31:36.434Z,14.08
2023-04-08T16:34:07.397Z,14.12
2023-04-08T16:36:37.320Z,14.07
2023-04-08T16:39:09.869Z,13.90
2023-04-08T16:41:39.944Z,13.88
2023-04-08T16:44:10.174Z,13.87
2023-04-08T16:46:40.169Z,13.88
2023-04-08T16:49:13.408Z,13.88
2023-04-08T16:51:44.754Z,13.86
2023-04-08T16:54:17.317Z,13.88
2023-04-08T16:56:47.176Z,13.90
2023-04-08T16:59:17.358Z,13.89
2023-04-08T17:01:47.611Z,13.84
2023-04-08T17:04:18.569Z,13.85
2023-04-08T17:06:49.277Z,13.89
2023-04-08T17:09:22.606Z,13.92
2023-04-08T17:11:52.717Z,13.89
2023-04-08T17:14:22.588Z,13.85
2023-04-08T17:16:52.618Z,13.79
2023-04-08T17:19:22.643Z,13.80
2023-04-08T17:21:52.599Z,13.83
2023-04-08T17:24:25.173Z,13.78
2023-04-08T17:26:57.020Z,13.72
2023-04-08T17:29:26.943Z,13.64
2023-04-08T17:31:57.165Z,13.56
2023-04-08T17:34:27.701Z,13.48
2023-04-08T17:36:57.661Z,13.41
2023-04-08T17:39:30.498Z,13.42
2023-04-08T17:42:02.562Z,13.44
2023-04-08T17:44:32.617Z,13.44
2023-04-08T17:47:02.764Z,13.46
2023-04-08T17:49:32.867Z,13.43
2023-04-08T17:52:03.111Z,13.46
2023-04-08T17:54:36.227Z,13.43
2023-04-08T17:57:06.267Z,13.30
2023-04-08T17:59:36.488Z,13.26
2023-04-08T18:02:06.709Z,13.27
2023-04-08T18:04:36.888Z,13.24
2023-04-08T18:07:07.124Z,13.24
2023-04-08T18:09:41.211Z,13.26
2023-04-08T18:12:11.958Z,13.22
2023-04-08T18:14:42.333Z,13.21
2023-04-08T18:17:12.676Z,13.24
2023-04-08T18:19:42.501Z,13.24
2023-04-08T18:22:12.396Z,13.23
2023-04-08T18:24:44.899Z,13.21
2023-04-08T18:27:14.844Z,13.20
2023-04-08T18:29:44.972Z,13.20
2023-04-08T18:32:15.203Z,13.19
2023-04-08T18:34:45.149Z,13.20
2023-04-08T18:37:17.126Z,13.19
2023-04-08T18:39:49.715Z,13.17
2023-04-08T18:42:19.800Z,13.15
2023-04-08T18:44:49.851Z,13.14
2023-04-08T18:47:20.314Z,13.12
2023-04-08T18:49:50.217Z,13.12
2023-04-08T18:52:20.122Z,13.10
2023-04-08T18:54:53.139Z,13.08
2023-04-08T18:57:23.374Z,13.06
2023-04-08T18:59:53.267Z,13.05
2023-04-08T19:02:23.447Z,13.02
2023-04-08T19:04:53.518Z,12.94
2023-04-08T19:07:23.461Z,12.89
2023-04-08T19:09:59.480Z,12.83
2023-04-08T19:12:30.082Z,12.83
2023-04-08T19:15:02.659Z,12.80
2023-04-08T19:17:32.714Z,12.77
2023-04-08T19:20:03.674Z,12.79
2023-04-08T19:22:33.712Z,12.78
2023-04-08T19:25:09.311Z,12.79
2023-04-08T19:27:39.635Z,12.76
2023-04-08T19:30:11.310Z,12.66
2023-04-08T19:32:42.987Z,12.63
2023-04-08T19:35:15.731Z,12.64
2023-04-08T19:37:45.773Z,12.68
2023-04-08T19:40:19.688Z,12.72
2023-04-08T19:42:49.624Z,12.68
2023-04-08T19:45:20.297Z,12.68
2023-04-08T19:47:50.522Z,12.64
2023-04-08T19:50:22.396Z,12.65
2023-04-08T19:52:52.425Z,12.66
2023-04-08T19:55:25.316Z,12.65
2023-04-08T19:57:55.860Z,12.65
2023-04-08T20:00:26.326Z,12.65
2023-04-08T20:02:56.657Z,12.66
2023-04-08T20:05:26.839Z,12.62
2023-04-08T20:07:56.915Z,12.52
2023-04-08T20:10:29.473Z,12.51
2023-04-08T20:12:59.384Z,12.55
2023-04-08T20:15:29.579Z,12.55
2023-04-08T20:17:59.697Z,12.50
2023-04-08T20:20:30.087Z,12.47
2023-04-08T20:23:00.120Z,12.41
2023-04-08T20:25:32.866Z,12.38
2023-04-08T20:28:03.450Z,12.33
2023-04-08T20:30:33.466Z,12.29
2023-04-08T20:33:03.428Z,12.28
2023-04-08T20:35:33.507Z,12.26
2023-04-08T20:38:03.381Z,12.28
2023-04-08T20:40:38.669Z,12.30
2023-04-08T20:43:08.487Z,12.29
2023-04-08T20:45:40.003Z,12.27
2023-04-08T20:48:10.315Z,12.19
2023-04-08T20:50:40.419Z,12.12
2023-04-08T20:53:10.471Z,12.11
2023-04-08T20:55:43.104Z,12.13
2023-04-08T20:58:13.024Z,12.14
2023-04-08T21:00:42.998Z,12.18
2023-04-08T21:03:13.337Z,12.22
2023-04-08T21:05:43.417Z,12.24
2023-04-08T21:08:13.369Z,12.23
2023-04-08T21:10:46.326Z,12.21
2023-04-08T21:13:16.509Z,12.20
2023-04-08T21:15:46.598Z,12.16
2023-04-08T21:18:16.769Z,12.12
2023-04-08T21:20:46.725Z,12.02
2023-04-08T21:23:16.622Z,12.02
2023-04-08T21:25:49.199Z,12.00
2023-04-08T21:28:19.207Z,11.95
2023-04-08T21:30:49.093Z,11.93
2023-04-08T21:33:19.052Z,11.93
2023-04-08T21:35:48.983Z,11.93
2023-04-08T21:38:19.152Z,11.92
2023-04-08T21:40:51.559Z,11.94
2023-04-08T21:43:22.124Z,11.96
2023-04-08T21:45:53.599Z,11.98
2023-04-08T21:48:24.186Z,12.02
2023-04-08T21:50:54.083Z,12.03
2023-04-08T21:53:24.342Z,12.02
2023-04-08T21:55:56.876Z,12.02
2023-04-08T21:58:28.437Z,11.99
2023-04-08T22:00:58.378Z,11.98
2023-04-08T22:03:29.550Z,11.92
2023-04-08T22:05:59.555Z,11.90
2023-04-08T22:08:30.758Z,11.89
2023-04-08T22:11:03.505Z,11.87
2023-04-08T22:13:33.392Z,11.87
2023-04-08T22:16:03.346Z,11.87
2023-04-08T22:18:33.520Z,11.84
2023-04-08T22:21:03.375Z,11.83
2023-04-08T22:23:33.431Z,11.83
2023-04-08T22:26:06.002Z,11.79
2023-04-08T22:28:35.911Z,11.78
2023-04-08T22:31:06.099Z,11.71
2023-04-08T22:33:36.621Z,11.69
2023-04-08T22:36:07.206Z,11.73
2023-04-08T22:38:37.373Z,11.74
2023-04-08T22:41:09.891Z,11.72
2023-04-08T22:43:40.112Z,11.72
2023-04-08T22:46:10.302Z,11.71
2023-04-08T22:48:40.549Z,11.75
2023-04-08T22:51:11.518Z,11.66
2023-04-08T22:53:42.382Z,11.62
2023-04-08T22:56:15.533Z,11.63
2023-04-08T22:58:45.658Z,11.59
2023-04-08T23:01:17.279Z,11.55
2023-04-08T23:03:47.304Z,11.47
2023-04-08T23:06:17.489Z,11.48
2023-04-08T23:08:47.296Z,11.47
2023-04-08T23:11:19.915Z,11.47
2023-04-08T23:13:49.791Z,11.35
2023-04-08T23:16:19.794Z,11.34
2023-04-08T23:18:52.913Z,11.34
2023-04-08T23:21:23.667Z,11.34
2023-04-08T23:23:53.551Z,11.32
2023-04-08T23:26:26.045Z,11.16
2023-04-08T23:28:56.130Z,11.11
2023-04-08T23:31:26.070Z,11.00
2023-04-08T23:33:56.030Z,10.94
2023-04-08T23:36:25.885Z,10.75
2023-04-08T23:38:55.698Z,10.75
2023-04-08T23:41:28.267Z,10.72
2023-04-08T23:43:58.175Z,10.66
2023-04-08T23:46:28.157Z,10.64
2023-04-08T23:48:58.118Z,10.60
2023-04-08T23:51:28.141Z,10.62
2023-04-08T23:53:57.959Z,10.60
2023-04-08T23:56:30.729Z,10.54
2023-04-08T23:59:00.737Z,10.52
